Time;durP1;ratioP1;P1;durP2;ratioP2;P2;SDS_P1;SDS_P2;PMS_P1;PMS_P2;Temp;Humidity;BMP_temperature;BMP_pressure;BME280_temperature;BME280_humidity;BME280_pressure;Samples;Min_cycle;Max_cycle;Signal;HPM_P1;HPM_P2
2022/01/30 00:00:21;;;;;;;31.02;5.82;;;;;;;3.32;100.00;102656.28;5318575;27;20046;-84
2022/01/30 00:02:52;;;;;;;31.48;5.50;;;;;;;3.32;100.00;102665.97;5319500;28;20013;-84
2022/01/30 00:05:24;;;;;;;35.90;5.57;;;;;;;3.26;100.00;102674.94;5322432;28;20105;-84
2022/01/30 00:07:55;;;;;;;26.15;6.03;;;;;;;3.25;100.00;102682.91;5322100;27;20118;-84
2022/01/30 00:10:27;;;;;;;32.03;5.45;;;;;;;3.10;100.00;102676.34;5324327;27;20446;-84
2022/01/30 00:13:00;;;;;;;29.70;5.50;;;;;;;3.11;100.00;102683.34;5324027;27;20074;-84
2022/01/30 00:15:39;;;;;;;30.50;4.82;;;;;;;3.18;100.00;102690.16;5325142;28;20020;-84
2022/01/30 00:18:41;;;;;;;34.47;7.57;;;;;;;3.19;100.00;102689.22;5321121;28;20040;-84
2022/01/30 00:21:30;;;;;;;29.67;6.25;;;;;;;3.14;100.00;102689.38;5323918;28;20036;-84
2022/01/30 00:24:07;;;;;;;31.25;5.22;;;;;;;3.05;100.00;102688.81;5321123;28;20028;-84
2022/01/30 00:26:40;;;;;;;35.42;6.30;;;;;;;2.95;100.00;102689.09;5322754;28;20039;-83
2022/01/30 00:29:11;;;;;;;29.33;4.72;;;;;;;2.79;100.00;102683.44;5324294;27;20093;-84
2022/01/30 00:31:43;;;;;;;32.08;5.53;;;;;;;2.81;100.00;102699.22;5324870;27;20024;-84
2022/01/30 00:34:14;;;;;;;28.02;5.45;;;;;;;2.71;100.00;102698.63;5326000;28;20114;-83
2022/01/30 00:36:45;;;;;;;32.45;6.95;;;;;;;2.68;100.00;102711.03;5326127;28;20035;-82
2022/01/30 00:39:17;;;;;;;30.95;5.45;;;;;;;2.61;100.00;102705.06;5326358;27;20032;-83
2022/01/30 00:41:48;;;;;;;33.45;5.38;;;;;;;2.64;100.00;102713.75;5326378;27;20035;-83
2022/01/30 00:44:19;;;;;;;32.28;5.68;;;;;;;2.57;100.00;102706.06;5322217;28;20024;-83
2022/01/30 00:46:51;;;;;;;36.47;5.00;;;;;;;2.48;100.00;102695.81;5325078;27;20060;-84
2022/01/30 00:49:22;;;;;;;28.13;5.47;;;;;;;2.62;100.00;102680.47;5322937;27;20089;-84
2022/01/30 00:51:54;;;;;;;27.67;6.35;;;;;;;2.60;100.00;102706.84;5321930;27;20082;-84
2022/01/30 00:54:25;;;;;;;46.20;10.55;;;;;;;2.78;100.00;102704.56;5319602;28;20032;-84
2022/01/30 00:56:56;;;;;;;28.35;5.75;;;;;;;2.75;100.00;102704.66;5325434;27;20016;-83
2022/01/30 00:59:28;;;;;;;28.50;4.25;;;;;;;2.73;100.00;102709.13;5314987;28;20102;-84
2022/01/30 01:01:59;;;;;;;30.10;6.07;;;;;;;2.73;100.00;102709.13;5325975;28;20475;-83
2022/01/30 01:04:30;;;;;;;24.88;5.47;;;;;;;2.64;100.00;102713.75;5326128;28;20062;-84
2022/01/30 01:07:02;;;;;;;31.35;5.15;;;;;;;2.55;100.00;102721.94;5324104;28;20043;-84
2022/01/30 01:09:37;;;;;;;33.42;5.43;;;;;;;2.38;100.00;102700.47;5322755;28;20048;-84
2022/01/30 01:23:30;;;;;;;40.35;8.00;;;;;;;2.42;100.00;102723.16;5325963;28;20483;-84
2022/01/30 01:26:01;;;;;;;43.03;12.70;;;;;;;2.53;100.00;102728.16;5323616;28;20099;-83
2022/01/30 01:28:32;;;;;;;37.80;7.35;;;;;;;2.52;100.00;102735.19;5325159;28;20122;-84
2022/01/30 01:31:04;;;;;;;40.22;6.63;;;;;;;2.58;100.00;102727.13;5326360;28;20047;-83
2022/01/30 01:33:50;;;;;;;36.60;8.10;;;;;;;2.52;100.00;102735.19;5326945;27;20467;-83
2022/01/30 01:36:23;;;;;;;43.40;7.88;;;;;;;2.38;100.00;102726.81;5324461;28;20039;-84
2022/01/30 01:38:54;;;;;;;38.70;8.63;;;;;;;2.42;100.00;102734.59;5333075;27;20068;-83
2022/01/30 01:41:27;;;;;;;29.92;6.00;;;;;;;2.26;100.00;102742.06;5327200;28;20464;-84
2022/01/30 01:43:58;;;;;;;45.97;10.75;;;;;;;2.23;100.00;102736.88;5326716;27;20020;-84
2022/01/30 01:46:34;;;;;;;41.92;12.27;;;;;;;2.29;100.00;102734.97;5327313;27;20384;-83
2022/01/30 01:49:06;;;;;;;31.13;5.95;;;;;;;2.13;100.00;102738.03;5326733;27;20072;-83
2022/01/30 01:51:37;;;;;;;35.95;6.32;;;;;;;2.14;100.00;102746.78;5327457;27;20071;-84
2022/01/30 01:54:08;;;;;;;43.15;11.15;;;;;;;2.27;100.00;102748.19;5325978;27;20024;-83
2022/01/30 01:56:40;;;;;;;29.75;5.05;;;;;;;2.16;100.00;102742.34;5327445;27;20020;-84
2022/01/30 01:59:12;;;;;;;45.58;10.15;;;;;;;2.21;100.00;102750.97;5327288;28;20065;-84
2022/01/30 02:01:48;;;;;;;39.83;10.57;;;;;;;2.46;100.00;102754.66;5327099;27;20020;-83
2022/01/30 02:04:20;;;;;;;36.67;6.15;;;;;;;2.30;100.00;102747.22;5326487;27;20530;-83
2022/01/30 02:07:02;;;;;;;45.50;7.93;;;;;;;2.25;100.00;102739.47;5326771;27;20091;-84
2022/01/30 02:09:34;;;;;;;29.40;4.90;;;;;;;2.21;100.00;102735.16;5326114;28;20024;-84
2022/01/30 02:12:06;;;;;;;38.83;5.35;;;;;;;2.30;100.00;102732.31;5327384;28;20439;-84
2022/01/30 02:14:46;;;;;;;38.75;5.10;;;;;;;2.32;100.00;102730.50;5326583;27;20028;-83
2022/01/30 02:25:56;;;;;;;38.13;5.53;;;;;;;2.45;100.00;102725.72;5326130;28;20020;-84
2022/01/30 02:28:31;;;;;;;41.92;8.43;;;;;;;2.38;100.00;102711.88;5325424;28;20063;-83
2022/01/30 02:31:10;;;;;;;33.63;5.90;;;;;;;2.42;100.00;102731.06;5325448;27;20029;-83
2022/01/30 02:33:43;;;;;;;37.28;5.95;;;;;;;2.36;100.00;102737.38;5323214;28;20145;-84
2022/01/30 02:36:14;;;;;;;33.83;4.80;;;;;;;2.43;100.00;102727.53;5325260;28;20067;-83
2022/01/30 02:38:45;;;;;;;32.75;5.75;;;;;;;2.42;100.00;102734.59;5325525;27;20116;-83
2022/01/30 02:41:17;;;;;;;32.28;5.93;;;;;;;2.32;100.00;102733.13;5325244;27;20024;-84
2022/01/30 02:44:03;;;;;;;33.85;5.10;;;;;;;2.28;100.00;102734.13;5325615;27;20380;-83
2022/01/30 02:46:39;;;;;;;35.92;4.97;;;;;;;2.27;100.00;102733.25;5325510;28;20024;-84
2022/01/30 02:54:26;;;;;;;34.65;7.38;;;;;;;2.23;100.00;102714.94;5324751;27;20035;-83
2022/01/30 02:56:58;;;;;;;37.20;6.03;;;;;;;2.26;100.00;102728.91;5322696;27;20035;-84
2022/01/30 02:59:30;;;;;;;28.27;5.30;;;;;;;2.17;100.00;102717.75;5325254;27;20473;-84
2022/01/30 03:02:02;;;;;;;31.45;5.22;;;;;;;2.17;100.00;102728.28;5320579;28;20024;-84
2022/01/30 03:04:33;;;;;;;34.17;8.35;;;;;;;2.35;100.00;102745.31;5325823;27;20020;-83
2022/01/30 03:07:04;;;;;;;43.45;7.13;;;;;;;2.27;100.00;102730.59;5322961;28;20056;-84
2022/01/30 03:09:36;;;;;;;33.10;7.82;;;;;;;2.41;100.00;102758.34;5325012;27;20035;-83
2022/01/30 03:12:08;;;;;;;41.05;7.25;;;;;;;2.54;100.00;102758.84;5323931;27;20078;-84
2022/01/30 03:14:39;;;;;;;33.40;6.25;;;;;;;2.42;100.00;102758.31;5325391;27;20024;-83
2022/01/30 03:17:10;;;;;;;42.65;5.60;;;;;;;2.53;100.00;102760.63;5326083;28;20028;-83
2022/01/30 03:19:42;;;;;;;32.80;4.85;;;;;;;2.46;100.00;102757.28;5325159;27;20028;-83
2022/01/30 03:22:13;;;;;;;35.42;6.50;;;;;;;2.60;100.00;102767.44;5326015;28;20460;-84
2022/01/30 03:24:44;;;;;;;32.67;4.90;;;;;;;2.44;100.00;102759.13;5323035;27;20032;-83
2022/01/30 03:27:15;;;;;;;35.03;5.05;;;;;;;2.59;100.00;102768.34;5325729;28;20104;-82
2022/01/30 03:29:51;;;;;;;31.17;5.55;;;;;;;2.78;100.00;102771.31;5325015;27;20055;-83
2022/01/30 03:32:22;;;;;;;26.67;4.53;;;;;;;2.86;100.00;102770.22;5322108;28;20365;-83
2022/01/30 03:34:54;;;;;;;31.58;4.07;;;;;;;2.93;100.00;102779.69;5324322;28;20015;-84
2022/01/30 03:37:26;;;;;;;29.88;5.40;;;;;;;2.96;100.00;102775.22;5325354;28;20470;-83
2022/01/30 03:39:57;;;;;;;33.47;6.03;;;;;;;3.22;100.00;102794.63;5323199;27;20063;-84
2022/01/30 03:42:28;;;;;;;39.97;4.90;;;;;;;3.25;100.00;102798.97;5324785;28;20365;-83
2022/01/30 03:45:00;;;;;;;34.45;6.65;;;;;;;3.36;100.00;102797.69;5325570;28;20099;-82
2022/01/30 03:47:31;;;;;;;35.03;5.00;;;;;;;3.37;100.00;102802.06;5324750;27;20044;-83
2022/01/30 03:50:03;;;;;;;35.70;6.55;;;;;;;3.57;100.00;102813.78;5320830;28;20025;-82
2022/01/30 03:52:35;;;;;;;31.38;5.35;;;;;;;3.51;100.00;102804.28;5314045;28;20020;-83
2022/01/30 03:55:06;;;;;;;28.77;5.20;;;;;;;3.59;100.00;102817.22;5320436;27;20047;-83
2022/01/30 03:57:38;;;;;;;29.15;6.88;;;;;;;3.50;100.00;102802.53;5325569;27;20099;-83
2022/01/30 04:00:09;;;;;;;28.48;5.03;;;;;;;3.51;100.00;102808.72;5325545;27;20028;-83
2022/01/30 04:02:41;;;;;;;29.40;5.95;;;;;;;3.44;100.00;102813.31;5317427;28;20426;-83
2022/01/30 04:05:12;;;;;;;33.30;5.50;;;;;;;3.47;100.00;102801.78;5324532;27;20040;-84
2022/01/30 04:07:47;;;;;;;30.23;5.13;;;;;;;3.38;100.00;102819.66;5322186;27;20074;-82
2022/01/30 04:10:18;;;;;;;36.20;4.95;;;;;;;3.39;100.00;102817.84;5323971;27;20027;-84
2022/01/30 04:12:50;;;;;;;35.63;5.18;;;;;;;3.41;100.00;102806.34;5324083;27;20036;-84
2022/01/30 04:15:21;;;;;;;28.67;5.97;;;;;;;3.56;100.00;102828.75;5325228;27;20349;-84
2022/01/30 04:17:53;;;;;;;35.08;5.28;;;;;;;3.44;100.00;102823.84;5323974;27;20404;-82
2022/01/30 04:20:24;;;;;;;36.17;5.90;;;;;;;3.54;100.00;102841.13;5325045;27;20016;-84
2022/01/30 04:22:56;;;;;;;31.20;5.13;;;;;;;3.60;100.00;102835.66;5324185;27;20055;-84
2022/01/30 04:25:27;;;;;;;27.52;5.25;;;;;;;3.57;100.00;102826.97;5324259;27;20055;-84
2022/01/30 04:27:59;;;;;;;25.65;3.95;;;;;;;3.57;100.00;102811.13;5323183;27;20023;-84
2022/01/30 04:30:30;;;;;;;36.78;5.25;;;;;;;3.68;100.00;102832.78;5320853;28;20052;-84
2022/01/30 04:33:02;;;;;;;29.42;7.03;;;;;;;3.90;100.00;102835.56;5321642;27;20036;-84
2022/01/30 04:35:34;;;;;;;22.85;4.90;;;;;;;3.71;100.00;102832.66;5324200;28;20476;-84
2022/01/30 04:41:09;;;;;;;36.80;5.57;;;;;;;3.83;100.00;102830.56;5323766;28;20055;-84
2022/01/30 05:06:54;;;;;;;26.83;4.45;;;;;;;3.51;100.00;102861.47;5323806;27;20040;-84
2022/01/30 05:09:27;;;;;;;30.90;5.65;;;;;;;3.41;100.00;102866.16;5319066;27;20044;-83
2022/01/30 05:11:58;;;;;;;29.20;4.68;;;;;;;3.25;100.00;102857.00;5324720;27;20024;-84
2022/01/30 05:14:34;;;;;;;23.52;5.88;;;;;;;3.14;100.00;102876.63;5324489;27;20403;-83
2022/01/30 05:17:06;;;;;;;23.30;5.03;;;;;;;3.09;100.00;102881.16;5324601;27;20491;-83
2022/01/30 05:19:38;;;;;;;24.02;6.28;;;;;;;2.85;100.00;102885.34;5324521;27;20051;-83
2022/01/30 05:22:10;;;;;;;25.90;5.35;;;;;;;2.69;100.00;102876.16;5322655;28;20365;-83
2022/01/30 05:24:41;;;;;;;32.33;4.43;;;;;;;2.76;100.00;102878.56;5322546;27;20024;-84
2022/01/30 05:27:13;;;;;;;26.02;4.18;;;;;;;2.43;100.00;102875.91;5323418;28;20032;-83
2022/01/30 05:29:44;;;;;;;27.50;5.72;;;;;;;2.33;100.00;102882.34;5323023;28;20476;-83
2022/01/30 05:32:16;;;;;;;31.17;6.28;;;;;;;2.42;100.00;102886.47;5321695;27;20024;-83
2022/01/30 05:34:47;;;;;;;29.55;5.32;;;;;;;2.04;100.00;102883.06;5323593;27;20409;-84
2022/01/30 05:37:19;;;;;;;27.10;5.05;;;;;;;2.09;100.00;102886.44;5324147;27;20133;-83
2022/01/30 05:39:51;;;;;;;28.15;5.18;;;;;;;2.07;100.00;102885.63;5321815;27;20525;-84
2022/01/30 05:42:25;;;;;;;30.08;4.35;;;;;;;1.97;100.00;102879.72;5323493;28;20115;-84
2022/01/30 05:45:41;;;;;;;27.42;3.67;;;;;;;1.82;100.00;102888.84;5322428;27;20071;-84
2022/01/30 05:47:57;;;;;;;29.42;4.28;;;;;;;1.85;100.00;102894.00;5309861;28;20044;-84
2022/01/30 05:50:29;;;;;;;26.77;4.18;;;;;;;1.79;100.00;102895.91;5323460;27;20021;-84
2022/01/30 05:53:01;;;;;;;20.65;3.60;;;;;;;1.94;100.00;102892.94;5323813;28;20062;-84
2022/01/30 05:55:32;;;;;;;29.92;4.95;;;;;;;1.89;100.00;102902.69;5324677;28;20035;-84
2022/01/30 05:58:03;;;;;;;28.67;3.40;;;;;;;1.79;100.00;102894.19;5317175;28;20110;-84
2022/01/30 06:00:35;;;;;;;30.60;3.55;;;;;;;1.82;100.00;102904.63;5325721;27;20024;-84
2022/01/30 06:03:06;;;;;;;26.70;4.07;;;;;;;1.80;100.00;102906.41;5327559;27;20016;-84
2022/01/30 06:05:38;;;;;;;21.65;3.25;;;;;;;1.74;100.00;102911.84;5327361;27;20126;-84
2022/01/30 06:08:13;;;;;;;25.30;3.58;;;;;;;1.70;100.00;102910.16;5313314;28;20403;-84
2022/01/30 06:10:45;;;;;;;23.85;3.45;;;;;;;1.64;100.00;102905.03;5325552;28;20043;-82
2022/01/30 06:13:16;;;;;;;20.52;3.22;;;;;;;1.57;100.00;102914.81;5327357;27;20459;-82
2022/01/30 06:15:47;;;;;;;26.85;3.00;;;;;;;1.46;100.00;102914.22;5327538;27;20107;-82
2022/01/30 06:18:19;;;;;;;18.75;3.97;;;;;;;1.43;100.00;102904.59;5322056;27;20396;-83
2022/01/30 06:20:50;;;;;;;27.52;3.60;;;;;;;1.45;100.00;102910.69;5326376;28;20051;-82
2022/01/30 06:23:22;;;;;;;22.92;3.80;;;;;;;1.54;100.00;102908.75;5326905;27;20110;-82
2022/01/30 06:25:53;;;;;;;27.73;4.05;;;;;;;1.71;100.00;102919.78;5327902;27;20012;-82
2022/01/30 06:28:25;;;;;;;35.38;5.40;;;;;;;1.77;100.00;102908.25;5325591;27;20349;-83
2022/01/30 06:30:56;;;;;;;22.27;4.00;;;;;;;1.90;100.00;102899.19;5327263;28;20074;-83
2022/01/30 06:33:27;;;;;;;21.30;3.03;;;;;;;2.16;100.00;102910.88;5326559;27;20023;-83
2022/01/30 06:35:58;;;;;;;22.67;2.97;;;;;;;2.23;100.00;102897.50;5319979;27;20025;-82
2022/01/30 06:38:30;;;;;;;33.47;5.22;;;;;;;2.38;100.00;102916.44;5326283;28;20027;-82
2022/01/30 06:41:01;;;;;;;23.40;3.95;;;;;;;2.39;100.00;102911.16;5326986;27;20024;-82
2022/01/30 06:43:32;;;;;;;26.70;4.55;;;;;;;2.52;100.00;102918.75;5328302;27;20020;-83
2022/01/30 06:46:04;;;;;;;25.48;4.15;;;;;;;2.61;100.00;102922.00;5327083;28;20051;-83
2022/01/30 06:48:35;;;;;;;20.33;3.20;;;;;;;2.60;100.00;102908.88;5325360;28;20043;-84
2022/01/30 06:51:07;;;;;;;24.13;4.75;;;;;;;2.72;100.00;102929.63;5322504;27;20067;-83
2022/01/30 06:53:38;;;;;;;23.85;5.43;;;;;;;2.84;100.00;102918.75;5324181;28;20738;-83
2022/01/30 06:56:09;;;;;;;22.13;4.20;;;;;;;3.01;100.00;102930.59;5327014;27;20031;-85
2022/01/30 06:58:41;;;;;;;22.23;4.28;;;;;;;3.05;100.00;102934.03;5326520;27;20036;-85
2022/01/30 07:01:12;;;;;;;24.95;4.13;;;;;;;2.90;100.00;102923.00;5327300;27;20020;-85
2022/01/30 07:03:44;;;;;;;22.45;4.18;;;;;;;3.08;100.00;102942.72;5309454;28;20016;-84
2022/01/30 07:06:15;;;;;;;24.20;3.22;;;;;;;2.79;100.00;102931.19;5325404;28;20043;-84
2022/01/30 07:08:47;;;;;;;19.08;3.55;;;;;;;2.79;100.00;102948.78;5325021;27;20032;-84
2022/01/30 07:11:18;;;;;;;26.42;4.53;;;;;;;2.57;100.00;102937.94;5326018;27;20020;-84
2022/01/30 07:13:50;;;;;;;26.08;4.03;;;;;;;2.48;100.00;102951.34;5325881;28;20056;-85
2022/01/30 07:16:21;;;;;;;18.77;4.13;;;;;;;2.26;100.00;102946.56;5324928;28;20479;-85
2022/01/30 07:18:52;;;;;;;21.08;4.70;;;;;;;2.13;100.00;102946.03;5328040;27;20423;-85
2022/01/30 07:21:24;;;;;;;28.02;4.35;;;;;;;1.89;100.00;102956.22;5325813;28;20092;-85
2022/01/30 07:23:55;;;;;;;23.23;3.70;;;;;;;1.68;100.00;102943.53;5325421;27;20033;-86
2022/01/30 07:26:26;;;;;;;21.70;3.60;;;;;;;1.67;100.00;102968.13;5326104;28;20032;-85
2022/01/30 07:28:59;;;;;;;28.52;3.92;;;;;;;1.53;100.00;102978.94;5324357;28;20031;-84
2022/01/30 07:31:34;;;;;;;29.55;5.00;;;;;;;1.52;100.00;102977.19;5325424;27;20020;-86
2022/01/30 07:34:05;;;;;;;25.60;4.13;;;;;;;1.58;100.00;102968.28;5312594;28;20084;-85
2022/01/30 07:36:37;;;;;;;26.75;3.58;;;;;;;1.47;100.00;102979.03;5322282;28;20039;-86
2022/01/30 07:39:15;;;;;;;26.58;4.13;;;;;;;1.50;100.00;102987.72;5326129;27;20016;-84
2022/01/30 07:41:47;;;;;;;26.30;4.15;;;;;;;1.39;100.00;102981.84;5330228;27;20438;-84
2022/01/30 07:44:18;;;;;;;23.30;3.63;;;;;;;1.26;100.00;102985.59;5325869;27;20064;-85
2022/01/30 07:46:50;;;;;;;24.83;3.35;;;;;;;1.37;100.00;103003.78;5322626;28;20173;-85
2022/01/30 07:49:21;;;;;;;20.23;3.25;;;;;;;1.34;100.00;103003.88;5320952;28;36915;-84
2022/01/30 07:51:53;;;;;;;26.23;4.30;;;;;;;1.40;100.00;102996.69;5325010;27;20028;-84
2022/01/30 07:54:25;;;;;;;26.58;3.40;;;;;;;1.54;100.00;103003.47;5324207;27;20016;-85
2022/01/30 07:56:56;;;;;;;20.60;3.67;;;;;;;1.59;100.00;102996.34;5325745;28;20047;-85
2022/01/30 07:59:27;;;;;;;26.10;4.22;;;;;;;1.51;100.00;102989.47;5325400;27;20113;-85
2022/01/30 08:01:59;;;;;;;27.08;3.88;;;;;;;1.69;100.00;102998.75;5320803;28;20108;-85
2022/01/30 08:04:30;;;;;;;21.60;4.00;;;;;;;2.07;100.00;102999.69;5323934;28;20116;-85
2022/01/30 08:07:02;;;;;;;19.98;3.70;;;;;;;2.52;100.00;102998.63;5309000;28;20048;-86
2022/01/30 08:09:34;;;;;;;26.08;4.63;;;;;;;2.70;100.00;103004.34;5324719;27;20035;-85
2022/01/30 08:12:06;;;;;;;23.17;3.63;;;;;;;3.06;100.00;103005.19;5324692;27;20388;-85
2022/01/30 08:14:37;;;;;;;25.98;3.35;;;;;;;3.43;100.00;102998.03;5324611;28;20024;-85
2022/01/30 08:17:08;;;;;;;24.55;3.25;;;;;;;3.77;100.00;102997.94;5324675;27;20542;-85
2022/01/30 08:19:44;;;;;;;13.88;3.92;;;;;;;4.09;100.00;103002.22;5324302;28;20028;-85
2022/01/30 08:22:15;;;;;;;13.35;2.72;;;;;;;4.53;100.00;102999.94;5323775;28;20504;-85
2022/01/30 08:24:46;;;;;;;21.08;4.10;;;;;;;5.12;100.00;102997.97;5322245;28;20119;-85
2022/01/30 08:27:18;;;;;;;19.30;3.17;;;;;;;6.01;100.00;102999.97;5325033;27;20030;-84
2022/01/30 08:29:52;;;;;;;16.83;3.78;;;;;;;5.69;100.00;103007.31;5324467;28;20077;-84
2022/01/30 08:32:24;;;;;;;17.55;3.38;;;;;;;5.26;100.00;103010.72;5325027;27;20055;-84
2022/01/30 08:34:55;;;;;;;18.83;3.35;;;;;;;5.05;100.00;103012.28;5324567;27;20040;-85
2022/01/30 08:37:26;;;;;;;16.58;2.97;;;;;;;4.72;100.00;103013.41;5325451;27;20262;-84
2022/01/30 08:39:58;;;;;;;19.77;3.20;;;;;;;4.67;100.00;103010.06;5323277;28;20023;-86
2022/01/30 08:42:29;;;;;;;21.52;4.63;;;;;;;4.60;100.00;102999.75;5324949;27;20027;-86
2022/01/30 08:45:01;;;;;;;19.42;4.10;;;;;;;4.72;100.00;103002.84;5325182;27;20032;-86
2022/01/30 08:47:32;;;;;;;17.77;4.22;;;;;;;4.82;100.00;103003.41;5325522;27;20036;-86
2022/01/30 08:50:05;;;;;;;19.13;4.20;;;;;;;4.79;100.00;103005.28;5324533;27;20016;-86
2022/01/30 08:52:36;;;;;;;22.50;4.55;;;;;;;4.81;100.00;102999.00;5325663;28;20523;-86
2022/01/30 08:55:09;;;;;;;20.50;5.20;;;;;;;4.89;100.00;103009.31;5323476;28;20115;-86
2022/01/30 08:57:41;;;;;;;16.42;3.38;;;;;;;5.06;100.00;103012.25;5324809;27;20387;-85
2022/01/30 09:00:15;;;;;;;16.00;3.28;;;;;;;5.21;100.00;103015.31;5324676;27;20020;-85
2022/01/30 09:02:47;;;;;;;27.50;4.65;;;;;;;5.12;100.00;103011.19;5322029;27;20035;-85
2022/01/30 09:05:18;;;;;;;22.98;3.60;;;;;;;5.14;100.00;103005.81;5324377;27;20392;-85
2022/01/30 09:07:49;;;;;;;16.70;3.65;;;;;;;5.24;100.00;103024.00;5324457;28;20054;-85
2022/01/30 09:10:21;;;;;;;18.85;4.15;;;;;;;5.32;100.00;103029.00;5324512;27;20035;-85
2022/01/30 09:12:52;;;;;;;22.02;3.88;;;;;;;5.36;100.00;103019.16;5324752;27;20077;-85
2022/01/30 09:15:23;;;;;;;27.50;3.65;;;;;;;5.35;100.00;103033.31;5322995;27;20021;-85
2022/01/30 09:17:57;;;;;;;21.42;3.75;;;;;;;5.57;100.00;103028.09;5323160;28;20028;-85
2022/01/30 09:20:28;;;;;;;15.35;3.78;;;;;;;5.91;100.00;103038.31;5322097;28;20028;-85
2022/01/30 09:23:00;;;;;;;21.23;3.63;;;;;;;5.95;100.00;103049.66;5323823;28;20028;-84
2022/01/30 09:25:31;;;;;;;19.58;4.25;;;;;;;6.11;100.00;103048.16;5324521;27;20465;-85
2022/01/30 09:28:03;;;;;;;25.65;4.05;;;;;;;6.57;100.00;103051.66;5322372;28;20379;-85
2022/01/30 09:30:34;;;;;;;17.35;3.88;;;;;;;6.78;100.00;103041.97;5322391;28;20044;-85
2022/01/30 09:33:06;;;;;;;38.20;4.90;;;;;;;7.02;100.00;103033.88;5326291;27;20021;-86
2022/01/30 09:35:37;;;;;;;25.30;3.92;;;;;;;7.26;100.00;103033.72;5323229;28;20024;-85
2022/01/30 09:38:09;;;;;;;20.38;4.05;;;;;;;7.41;100.00;103040.16;5324546;28;20876;-85
2022/01/30 09:40:40;;;;;;;27.30;4.50;;;;;;;7.38;100.00;103047.34;5319172;28;20486;-85
2022/01/30 09:43:13;;;;;;;20.08;3.85;;;;;;;7.14;100.00;103051.91;5328501;28;20032;-86
2022/01/30 09:45:45;;;;;;;22.77;3.80;;;;;;;7.36;100.00;103054.53;5325348;27;20094;-86
2022/01/30 09:48:18;;;;;;;17.20;3.78;;;;;;;7.45;100.00;103055.91;5326232;28;20040;-86
2022/01/30 09:50:50;;;;;;;26.90;4.78;;;;;;;7.74;100.00;103059.03;5328485;27;20032;-85
2022/01/30 09:53:22;;;;;;;27.10;4.78;;;;;;;7.87;100.00;103062.88;5325432;28;20024;-86
2022/01/30 09:55:53;;;;;;;23.92;4.15;;;;;;;7.89;100.00;103060.16;5327195;27;20039;-86
2022/01/30 09:58:24;;;;;;;22.13;3.30;;;;;;;8.06;100.00;103062.84;5326332;28;20134;-85
2022/01/30 10:00:57;;;;;;;31.08;4.05;;;;;;;8.16;100.00;103055.31;5328992;27;20075;-85
2022/01/30 10:03:28;;;;;;;22.92;3.45;;;;;;;7.93;100.00;103061.72;5328526;27;20460;-86
2022/01/30 10:06:05;;;;;;;20.83;3.33;;;;;;;7.87;100.00;103069.94;5327912;28;20044;-85
2022/01/30 10:08:42;;;;;;;20.95;3.78;;;;;;;7.98;100.00;103066.78;5326866;28;20131;-84
2022/01/30 10:11:28;;;;;;;25.15;4.57;;;;;;;8.31;100.00;103073.22;5322668;28;20036;-86
2022/01/30 10:14:11;;;;;;;22.40;4.03;;;;;;;8.78;100.00;103084.28;5325909;28;20445;-85
2022/01/30 10:16:46;;;;;;;21.95;4.28;;;;;;;9.05;100.00;103087.38;5315354;28;20032;-86
2022/01/30 10:19:23;;;;;;;23.75;5.22;;;;;;;9.23;100.00;103080.25;5324196;27;20036;-85
2022/01/30 10:22:08;;;;;;;26.25;4.60;;;;;;;9.92;100.00;103089.94;5327423;28;20028;-86
2022/01/30 10:24:42;;;;;;;24.70;3.80;;;;;;;10.14;100.00;103083.44;5326473;27;20032;-85
2022/01/30 10:27:25;;;;;;;20.60;4.15;;;;;;;9.82;100.00;103089.56;5326902;28;20031;-85
2022/01/30 10:30:04;;;;;;;22.65;4.38;;;;;;;10.23;100.00;103091.75;5325592;27;20033;-85
2022/01/30 10:32:35;;;;;;;26.52;4.65;;;;;;;10.83;100.00;103087.53;5323111;27;20384;-85
2022/01/30 10:35:08;;;;;;;24.58;4.78;;;;;;;10.38;100.00;103086.56;5325912;27;20028;-85
2022/01/30 10:37:40;;;;;;;26.85;4.60;;;;;;;10.98;100.00;103083.97;5323724;27;20054;-84
2022/01/30 10:40:17;;;;;;;18.83;4.00;;;;;;;12.45;100.00;103077.63;5324489;27;20032;-85
2022/01/30 10:42:52;;;;;;;18.90;4.60;;;;;;;12.97;100.00;103084.00;5326099;28;20346;-84
2022/01/30 10:45:32;;;;;;;21.95;4.57;;;;;;;13.88;100.00;103070.56;5319999;27;20075;-83
2022/01/30 10:48:16;;;;;;;19.02;4.00;;;;;;;15.58;100.00;103082.09;5326260;27;20444;-83
2022/01/30 10:50:48;;;;;;;15.80;3.65;;;;;;;16.16;73.40;103076.59;5323557;28;20103;-85
2022/01/30 10:53:25;;;;;;;17.98;4.38;;;;;;;16.12;81.73;103084.06;5324968;27;20480;-83
2022/01/30 10:55:59;;;;;;;19.23;4.30;;;;;;;14.69;69.47;103063.78;5324046;28;20407;-85
2022/01/30 10:58:31;;;;;;;19.73;4.93;;;;;;;14.26;80.24;103080.34;5326083;27;20028;-86
2022/01/30 11:01:05;;;;;;;16.60;3.92;;;;;;;14.24;78.06;103081.44;5324864;28;20019;-85
2022/01/30 11:03:50;;;;;;;18.67;4.30;;;;;;;14.19;78.81;103081.78;5324522;28;20118;-84
2022/01/30 11:06:21;;;;;;;20.15;4.50;;;;;;;13.45;78.55;103052.16;5323459;28;20067;-84
2022/01/30 11:08:53;;;;;;;19.98;4.68;;;;;;;12.72;88.03;103058.88;5324550;28;20032;-84
2022/01/30 11:11:36;;;;;;;23.20;4.63;;;;;;;11.80;97.13;103022.91;5324845;27;20477;-84
2022/01/30 11:19:33;;;;;;;22.77;4.60;;;;;;;12.60;100.00;103046.31;5320961;28;20033;-83
2022/01/30 11:22:12;;;;;;;17.42;4.43;;;;;;;13.14;79.20;103045.38;5319744;27;20477;-83
2022/01/30 11:24:54;;;;;;;18.30;4.40;;;;;;;12.77;84.61;103035.31;5322526;27;20031;-84
2022/01/30 11:27:25;;;;;;;20.85;4.30;;;;;;;12.08;97.58;103050.59;5323534;28;20020;-84
2022/01/30 11:29:59;;;;;;;16.95;4.28;;;;;;;12.41;97.09;103039.50;5322683;27;20477;-84
2022/01/30 11:32:30;;;;;;;26.48;4.82;;;;;;;12.09;99.58;103034.41;5324901;28;20016;-84
2022/01/30 11:35:02;;;;;;;24.60;4.85;;;;;;;12.12;97.44;103036.06;5324525;28;20020;-84
2022/01/30 11:37:36;;;;;;;19.83;4.03;;;;;;;11.54;81.59;103046.75;5324294;28;20039;-84
2022/01/30 11:40:14;;;;;;;17.02;4.28;;;;;;;11.32;92.11;103051.69;5320719;27;20272;-85
2022/01/30 11:42:49;;;;;;;20.95;4.13;;;;;;;10.27;86.56;103035.59;5320567;27;20107;-86
2022/01/30 11:45:28;;;;;;;25.00;4.32;;;;;;;10.00;100.00;103036.19;5325155;28;20035;-86
2022/01/30 11:48:11;;;;;;;21.85;4.45;;;;;;;9.62;100.00;103041.78;5323743;28;20020;-86
2022/01/30 11:50:45;;;;;;;20.70;4.10;;;;;;;9.75;100.00;103037.53;5326845;28;20439;-86
2022/01/30 11:53:27;;;;;;;27.13;5.22;;;;;;;10.45;100.00;103026.56;5327892;27;20085;-85
2022/01/30 11:56:03;;;;;;;25.67;6.03;;;;;;;11.16;100.00;103019.72;5329640;27;20016;-86
2022/01/30 11:58:46;;;;;;;25.13;5.43;;;;;;;11.58;100.00;103026.03;5332164;27;20024;-86
2022/01/30 12:01:26;;;;;;;18.13;3.92;;;;;;;13.39;100.00;103028.47;5330272;28;20422;-86
2022/01/30 12:04:00;;;;;;;19.35;4.15;;;;;;;14.93;87.33;103020.75;5328620;28;20052;-86
2022/01/30 12:06:37;;;;;;;15.13;3.67;;;;;;;15.59;80.18;103017.41;5329940;27;20048;-86
2022/01/30 12:09:26;;;;;;;;;;;;;;;16.66;61.08;103024.91;5322608;28;20028;-86
2022/01/30 12:12:03;;;;;;;12.85;3.00;;;;;;;15.86;58.34;103033.19;5304659;28;19995;-86
2022/01/30 12:14:44;;;;;;;20.25;4.50;;;;;;;14.66;79.19;103017.50;5304099;28;20075;-86
2022/01/30 12:17:53;;;;;;;18.55;4.20;;;;;;;13.32;83.23;103022.66;5305137;28;20028;-86
2022/01/30 12:20:27;;;;;;;15.30;4.35;;;;;;;12.03;100.00;102999.22;5329518;28;20028;-86
2022/01/30 12:22:59;;;;;;;18.20;4.10;;;;;;;11.62;99.18;103014.19;5328471;28;20016;-86
2022/01/30 12:25:34;;;;;;;20.05;3.92;;;;;;;11.32;100.00;102982.25;5329958;27;20054;-87
2022/01/30 12:28:07;;;;;;;17.52;3.95;;;;;;;13.21;98.96;102993.06;5329133;27;20488;-86
2022/01/30 12:30:46;;;;;;;16.17;3.75;;;;;;;16.95;66.84;103006.28;5326844;28;20055;-85
2022/01/30 12:33:44;;;;;;;17.10;3.80;;;;;;;17.93;59.71;102970.66;5327788;27;20027;-85
2022/01/30 12:36:18;;;;;;;14.15;3.47;;;;;;;17.27;49.98;103000.81;5336529;27;20437;-86
2022/01/30 12:38:59;;;;;;;16.67;3.75;;;;;;;19.03;57.53;102982.16;5325307;27;20389;-86
2022/01/30 12:41:32;;;;;;;13.52;3.15;;;;;;;21.02;42.95;102987.72;5323940;28;20016;-86